Prairie Hill, Texas
Current Conditions -  °F | °C
As of 4:35 PM on Saturday 25 Oct 2014 (Local Time) from KLXY Reporting Station
Clear Clear  
Wind Chill: 29°   Ceiling: Unl
Heat Index: 29°   Visibility: 10mi
Dew Point: 17°   Wind: 5mph
Humidity: 47%   Direction: 200°SSW
Pressure: 30.09"   Gusts: NA
Location:  31.66°N, 96.79°W
Report Text: KLXY 252135Z AUTO 20004KT 10SM CLR 29/17 A3009 RMK AO2 T02900167
Loading
Personal Weather Stations






























Interactive Weather Map
Tropical Storm Tracking
New forecast layout! Learn more

10-Day Weather Forecast

Advertisements
Track Severe Weather on mobile